Main page
METAR-TAF:

METAR-TAF

Airports :

Bandar Abbas, Iran

Bandar Abbas International Airport

latitude: 27-13N, longitude: 056-22E, elevation: 10 m

Current weather observation

The report was made 10 minutes ago, at 03:30 UTC
Wind 4 kt from the North
Temperature 28°C
Humidity 58%
Pressure 1010 hPa
Visibility: 5000 m
Few clouds at a height of 3000 ft
haze

METAR: OIKB 290330Z 01004KT 5000 HZ FEW030 28/19 Q1010 A2982

Time: 08:10 (03:40 UTC)

Forecast

The report was made 4 hours and 40 minutes ago, at 23:00 UTC
Forecast valid from 29 at 00 UTC to 30 at 06 UTC
Wind 8 kt from the East/Southeast
Visibility: 4000 m
haze
Becoming
from 29 at 04 UTC to 29 at 06 UTC
Wind 10 kt from the South
Visibility: 5000 m
haze

TAF: OIKB 282300Z 2900/3006 12004MPS 4000 HZ NSC BECMG 2904/2906 18005MPS 5000 HZ NSC

Weather observations and forecasts of more than 4000 airports (METAR and TAF reports).

The available stations are represented by yellow and red dots on the map.

Hover mouse over dot to see the name of the station.

Then click to see weather observations and forecasts.

To change the map : click on the green buttons with a black cross to zoom in, on the green button with a dash to zoom out, or on the green arrows for adjacent maps.


METAR-TAF: